Senyomaru — JI3557 — position and weather

sailwx.info

Track history (hours):
 
Tides and Currents Weather Stations Pressure Air Temp Water Temp Dewpoint Dewpoint Depression Visibility Wind Speed Wind Dir Waves Ship Positions

Senyomaru

Last reported at 2017-Jan-19 13:18 UTC. Time now 2017-Jan-24 19:23 UTC.
Position N 33°60' E 132°13'.

Length 69 m; draft 4 m.

Type: Tanker. MMSI: 431300188.

Date/timePositionNaut miles runAvg speedWind from/ knotsBaromVisibWave heightAir tempDewpointWater temp
2017-Jan-19 13:18N 33°60' E 132°13'  
2017-Jan-12 10:26N 34°09' E 134°59'1011.5
2017-Jan-12 09:33N 34°19' E 135°04'1211.7
2017-Jan-12 08:33N 34°28' E 135°13'1111.1
2017-Jan-12 07:32N 34°33' E 135°25'1 0.1
2017-Jan-11 23:18N 34°33' E 135°26'0 0.0
2017-Jan-11 22:29N 34°33' E 135°26'2 2.2
2017-Jan-11 21:32N 34°34' E 135°23'0 0.0
2017-Jan-11 20:32N 34°34' E 135°23'4 4.1
2017-Jan-11 19:33N 34°34' E 135°19'1413.2
2017-Jan-11 18:32N 34°36' E 135°02'7 0.2
2017-Jan-10 07:24N 34°36' E 134°54'910.1
2017-Jan-10 06:33N 34°36' E 135°04'1111.2
2017-Jan-10 05:33N 34°34' E 135°18'7 6.4
2017-Jan-10 04:30N 34°33' E 135°26'0 0.0
2017-Jan-10 03:31N 34°33' E 135°26'0 0.0
2017-Jan-10 02:07N 34°33' E 135°26'0 0.0
2017-Jan-09 23:18N 34°33' E 135°26'0 0.4
2017-Jan-09 22:33N 34°33' E 135°25'2 1.0
2017-Jan-09 20:33N 34°34' E 135°23'0 0.0
2017-Jan-09 19:33N 34°34' E 135°23'0 0.0
2017-Jan-09 18:15N 34°34' E 135°23'0 0.0
2017-Jan-09 17:21N 34°34' E 135°23'0 0.0
2017-Jan-09 16:21N 34°34' E 135°23'  
Track history (hours):
 
Tides and Currents Weather Stations Pressure Air Temp Water Temp Dewpoint Dewpoint Depression Visibility Wind Speed Wind Dir Waves Ship Positions

Senyomaru

Last reported at 2017-Jan-19 13:18 UTC. Time now 2017-Jan-24 19:23 UTC.
Position N 33°60' E 132°13'.

Length 69 m; draft 4 m.

Type: Tanker. MMSI: 431300188.

Date/timePositionNaut miles runAvg speedWind from/ knotsBaromVisibWave heightAir tempDewpointWater temp
2017-Jan-19 13:18N 33°60' E 132°13'  
2017-Jan-12 10:26N 34°09' E 134°59'1011.5
2017-Jan-12 09:33N 34°19' E 135°04'1211.7
2017-Jan-12 08:33N 34°28' E 135°13'1111.1
2017-Jan-12 07:32N 34°33' E 135°25'1 0.1
2017-Jan-11 23:18N 34°33' E 135°26'0 0.0
2017-Jan-11 22:29N 34°33' E 135°26'2 2.2
2017-Jan-11 21:32N 34°34' E 135°23'0 0.0
2017-Jan-11 20:32N 34°34' E 135°23'4 4.1
2017-Jan-11 19:33N 34°34' E 135°19'1413.2
2017-Jan-11 18:32N 34°36' E 135°02'7 0.2
2017-Jan-10 07:24N 34°36' E 134°54'910.1
2017-Jan-10 06:33N 34°36' E 135°04'1111.2
2017-Jan-10 05:33N 34°34' E 135°18'7 6.4
2017-Jan-10 04:30N 34°33' E 135°26'0 0.0
2017-Jan-10 03:31N 34°33' E 135°26'0 0.0
2017-Jan-10 02:07N 34°33' E 135°26'0 0.0
2017-Jan-09 23:18N 34°33' E 135°26'0 0.4
2017-Jan-09 22:33N 34°33' E 135°25'2 1.0
2017-Jan-09 20:33N 34°34' E 135°23'0 0.0
2017-Jan-09 19:33N 34°34' E 135°23'0 0.0
2017-Jan-09 18:15N 34°34' E 135°23'0 0.0
2017-Jan-09 17:21N 34°34' E 135°23'0 0.0
2017-Jan-09 16:21N 34°34' E 135°23'  

Dump ship's entire track history